Latest Weather Observations for Mount Hope

IDN60801

Issued at 4:03 pm EDT Thursday 23 November 2017 (issued every 30 minutes, with the page automatically refreshed every 10 minutes)

About weather observations | Map of weather stations | Latest weather observations for NSW | Other Formats
Station Details ID: 049136 Name: MOUNT HOPE AWS Lat: -32.83 Lon: 145.88 Height: 209.0 m
Data from the previous 72 hours. | See also: Recent months at Mount Hope
Date/Time
EDT
Temp
°C
App
Temp
°C
Dew
Point
°C
Rel
Hum
%
Delta-T
°C
Wind Press
QNH
hPa
Press
MSL
hPa
Rain since
9am
mm
Dir  Spd
km/h
Gust
km/h
Spd
kts
Gust
kts
23/04:00pm 32.5 - 3.5 16 15.1 - - - - - - - 0.0
23/03:30pm 30.9 - 3.8 18 14.0 - - - - - - - 0.0
23/03:00pm 30.8 - 3.8 18 14.0 - - - - - - - 0.0
23/02:30pm 30.8 - 4.5 19 13.8 - - - - - - - 0.0
23/02:00pm 31.4 - 5.0 19 14.0 - - - - - - - 0.0
23/01:30pm 30.7 - 3.7 18 13.9 - - - - - - - 0.0
23/01:00pm 31.1 - 4.8 19 13.9 - - - - - - - 0.0
23/12:30pm 30.4 - 3.4 18 13.8 - - - - - - - 0.0
23/12:00pm 30.2 - 5.5 21 13.1 - - - - - - - 0.0
23/11:30am 30.0 - 7.2 24 12.4 - - - - - - - 0.0
23/11:00am 29.6 - 8.1 26 11.9 - - - - - - - 0.0
23/10:30am 28.4 - 8.1 28 11.1 - - - - - - - 0.0
23/10:00am 27.2 - 8.1 30 10.4 - - - - - - - 0.0
23/09:30am 26.2 - 8.7 33 9.6 - - - - - - - 0.0
23/09:00am 24.8 - 8.7 36 8.8 - - - - - - - 0.0
23/08:30am 23.8 - 9.4 40 7.9 - - - - - - - 0.0
23/08:00am 22.3 - 9.1 43 7.1 - - - - - - - 0.0
23/07:30am 21.7 - 9.3 45 6.7 - - - - - - - 0.0
23/07:00am 21.0 - 8.9 46 6.5 - - - - - - - 0.0
23/06:30am 20.1 - 8.8 48 6.0 - - - - - - - 0.0
23/06:00am 19.7 - 8.7 49 5.8 - - - - - - - 0.0
23/05:30am 20.0 - 8.4 47 6.1 - - - - - - - 0.0
23/05:00am 20.1 - 8.1 46 6.3 - - - - - - - 0.0
23/04:30am 20.2 - 7.2 43 6.7 - - - - - - - 0.0
23/04:00am 19.5 - 7.3 45 6.3 - - - - - - - 0.0
23/03:30am 19.9 - 7.3 44 6.5 - - - - - - - 0.0
23/03:00am 20.5 - 7.2 42 6.9 - - - - - - - 0.0
23/02:30am 20.3 - 7.3 43 6.7 - - - - - - - 0.0
23/02:00am 19.7 - 7.1 44 6.5 - - - - - - - 0.0
23/01:30am 21.0 - 6.9 40 7.3 - - - - - - - 0.0
23/01:00am 21.8 - 6.1 36 8.0 - - - - - - - 0.0
23/12:30am 22.4 - 6.2 35 8.3 - - - - - - - 0.0
23/12:00am 22.4 - 6.2 35 8.3 - - - - - - - 0.0
 
Date/Time
EDT
Temp
°C
App
Temp
°C
Dew
Point
°C
Rel
Hum
%
Delta-T
°C
Wind Press
QNH
hPa
Press
MSL
hPa
Rain since
9am
mm
Dir  Spd
km/h
Gust
km/h
Spd
kts
Gust
kts
22/11:30pm 22.1 - 6.3 36 8.1 - - - - - - - 0.0
22/11:00pm 22.3 - 6.1 35 8.3 - - - - - - - 0.0
22/10:30pm 21.4 - 6.5 38 7.6 - - - - - - - 0.0
22/10:00pm 21.5 - 7.0 39 7.5 - - - - - - - 0.0
22/09:30pm 23.4 - 6.2 33 8.9 - - - - - - - 0.0
22/09:00pm 25.3 - 6.0 29 10.0 - - - - - - - 0.0
22/08:30pm 26.5 - 5.5 26 10.9 - - - - - - - 0.0
22/08:00pm 27.8 - 5.4 24 11.7 - - - - - - - 0.0
22/07:30pm 28.8 - 5.6 23 12.2 - - - - - - - 0.0
22/07:00pm 29.7 - 5.1 21 12.9 - - - - - - - 0.0
22/06:30pm 29.3 - 4.7 21 12.8 - - - - - - - 0.0
22/06:00pm 30.4 - 4.2 19 13.6 - - - - - - - 0.0
22/05:30pm 30.7 - 5.2 20 13.5 - - - - - - - 0.0
22/05:00pm 29.6 - 3.6 19 13.3 - - - - - - - 0.0
22/04:30pm 30.8 - 3.8 18 14.0 - - - - - - - 0.0
22/04:00pm 31.0 - 3.1 17 14.3 - - - - - - - 0.0
22/03:30pm 29.6 - 5.0 21 12.9 - - - - - - - 0.0
22/03:00pm 31.7 - 4.5 18 14.3 - - - - - - - 0.0
22/02:30pm 30.5 - 2.7 17 14.1 - - - - - - - 0.0
22/02:00pm 30.3 - 6.2 22 12.9 - - - - - - - 0.0
22/01:30pm 29.2 - 6.0 23 12.3 - - - - - - - 0.0
22/01:00pm 29.4 - 5.5 22 12.6 - - - - - - - 0.0
22/12:30pm 29.0 - 7.0 25 11.9 - - - - - - - 0.0
22/12:00pm 28.6 - 7.8 27 11.4 - - - - - - - 0.0
22/11:30am 27.5 - 9.3 32 10.1 - - - - - - - 0.0
22/11:00am 26.8 - 9.6 34 9.6 - - - - - - - 0.0
22/10:30am 25.7 - 10.3 38 8.6 - - - - - - - 0.0
22/10:00am 25.0 - 10.5 40 8.1 - - - - - - - 0.0
22/09:30am 24.1 - 10.4 42 7.6 - - - - - - - 0.0
22/09:00am 23.1 - 10.5 45 7.0 - - - - - - - 0.0
22/08:30am 21.8 - 10.6 49 6.2 - - - - - - - 0.0
22/08:00am 20.5 - 10.3 52 5.6 - - - - - - - 0.0
22/07:30am 19.9 - 10.0 53 5.4 - - - - - - - 0.0
22/07:00am 18.7 - 8.9 53 5.2 - - - - - - - 0.0
22/06:30am 17.4 - 8.0 54 4.8 - - - - - - - 0.0
22/06:00am 17.4 - 7.2 51 5.2 - - - - - - - 0.0
22/05:30am 18.3 - 6.8 47 5.8 - - - - - - - 0.0
22/05:00am 19.2 - 6.3 43 6.5 - - - - - - - 0.0
22/04:30am 20.1 - 6.1 40 7.1 - - - - - - - 0.0
22/04:00am 20.4 - 5.6 38 7.4 - - - - - - - 0.0
22/03:30am 21.1 - 5.1 35 8.0 - - - - - - - 0.0
22/03:00am 21.0 - 5.8 37 7.7 - - - - - - - 0.0
22/02:57am 21.1 - 5.9 37 7.7 - - - - - - - 0.0
22/02:30am 16.0 - 8.5 61 3.9 - - - - - - - 0.0
22/02:00am 14.9 - 9.9 72 2.6 - - - - - - - 0.0
22/01:30am 15.2 - 9.8 70 2.8 - - - - - - - 0.0
22/01:00am 15.8 - 9.9 68 3.1 - - - - - - - 0.0
22/12:30am 16.5 - 9.7 64 3.6 - - - - - - - 0.0
22/12:00am 17.6 - 9.8 60 4.2 - - - - - - - 0.0
 
Date/Time
EDT
Temp
°C
App
Temp
°C
Dew
Point
°C
Rel
Hum
%
Delta-T
°C
Wind Press
QNH
hPa
Press
MSL
hPa
Rain since
9am
mm
Dir  Spd
km/h
Gust
km/h
Spd
kts
Gust
kts
21/11:30pm 18.9 - 9.1 53 5.2 - - - - - - - 0.0
21/11:00pm 20.9 - 8.2 44 6.7 - - - - - - - 0.0
21/10:30pm 19.3 - 10.0 55 5.0 - - - - - - - 0.0
21/10:00pm 20.3 - 9.8 51 5.7 - - - - - - - 0.0
21/09:30pm 21.7 - 9.3 45 6.7 - - - - - - - 0.0
21/09:00pm 23.0 - 8.7 40 7.7 - - - - - - - 0.0
21/08:30pm 25.4 - 7.5 32 9.6 - - - - - - - 0.0
21/08:00pm 27.4 - 6.2 26 11.2 - - - - - - - 0.0
21/07:30pm 28.8 - 6.2 24 12.0 - - - - - - - 0.0
21/07:00pm 29.4 - 6.7 24 12.2 - - - - - - - 0.0
21/06:30pm 29.6 - 6.3 23 12.5 - - - - - - - 0.0
21/06:00pm 29.6 - 5.6 22 12.7 - - - - - - - 0.0
21/05:30pm 29.9 - 6.5 23 12.6 - - - - - - - 0.0
21/05:00pm 30.0 - 5.3 21 13.0 - - - - - - - 0.0
21/04:30pm 29.6 - 5.0 21 12.9 - - - - - - - 0.0
21/04:00pm 30.6 - 6.5 22 13.0 - - - - - - - 0.0
21/03:30pm 30.0 - 7.2 24 12.4 - - - - - - - 0.0
21/03:00pm 29.8 - 5.8 22 12.8 - - - - - - - 0.0
21/02:30pm 29.2 - 8.3 27 11.5 - - - - - - - 0.0
21/02:00pm 28.9 - 9.6 30 10.9 - - - - - - - 0.0
21/01:30pm 28.0 - 10.2 33 10.1 - - - - - - - 0.0
21/01:00pm 27.5 - 10.2 34 9.8 - - - - - - - 0.0
21/12:30pm 27.4 - 11.4 37 9.2 - - - - - - - 0.0
21/12:00pm 27.3 - 11.7 37 9.0 - - - - - - - 0.0
21/11:30am 25.8 - 11.9 42 8.0 - - - - - - - 0.0
21/11:00am 25.2 - 12.4 45 7.4 - - - - - - - 0.0
21/10:30am 24.7 - 12.0 45 7.3 - - - - - - - 0.0
21/10:00am 23.6 - 12.0 48 6.6 - - - - - - - 0.0
21/09:30am 23.0 - 11.7 49 6.4 - - - - - - - 0.0
21/09:00am 22.1 - 11.5 51 6.0 - - - - - - - 0.0
21/08:30am 21.3 - 11.6 54 5.4 - - - - - - - 0.0
21/08:00am 20.5 - 11.4 56 5.1 - - - - - - - 0.0
21/07:30am 19.6 - 11.4 59 4.6 - - - - - - - 0.0
21/07:00am 18.9 - 11.5 62 4.1 - - - - - - - 0.0
21/06:30am 18.1 - 11.4 65 3.7 - - - - - - - 0.0
21/06:00am 17.5 - 10.9 65 3.6 - - - - - - - 0.0
21/05:30am 18.2 - 10.6 61 4.1 - - - - - - - 0.0
21/05:00am 18.8 - 10.4 58 4.6 - - - - - - - 0.0
21/04:30am 19.3 - 10.0 55 5.0 - - - - - - - 0.0
21/04:00am 19.1 - 9.9 55 5.0 - - - - - - - 0.0
21/03:30am 19.9 - 9.5 51 5.6 - - - - - - - 0.0
21/03:00am 20.3 - 9.5 50 5.8 - - - - - - - 0.0
21/02:30am 15.5 - 10.7 73 2.6 - - - - - - - 0.0
21/02:00am 14.7 - 10.9 78 2.0 - - - - - - - 0.0
21/01:30am 15.8 - 10.3 70 2.9 - - - - - - - 0.0
21/01:00am 17.2 - 8.9 58 4.3 - - - - - - - 0.0
21/12:30am 17.6 - 9.8 60 4.2 - - - - - - - 0.0
21/12:00am 15.5 - 11.9 79 2.0 - - - - - - - 0.0
 
Date/Time
EDT
Temp
°C
App
Temp
°C
Dew
Point
°C
Rel
Hum
%
Delta-T
°C
Wind Press
QNH
hPa
Press
MSL
hPa
Rain since
9am
mm
Dir  Spd
km/h
Gust
km/h
Spd
kts
Gust
kts
20/11:30pm 16.1 - 11.9 76 2.3 - - - - - - - 0.0
20/11:00pm 16.4 - 12.6 78 2.1 - - - - - - - 0.0
20/10:30pm 16.8 - 12.7 77 2.3 - - - - - - - 0.0
20/10:00pm 17.6 - 12.7 73 2.8 - - - - - - - 0.0
20/09:30pm 18.9 - 12.9 68 3.4 - - - - - - - 0.0
20/09:00pm 20.4 - 12.4 60 4.5 - - - - - - - 0.0
20/08:30pm 22.4 - 10.9 48 6.4 - - - - - - - 0.0
20/08:00pm 25.1 - 9.4 37 8.7 - - - - - - - 0.0
20/07:30pm 26.6 - 8.6 32 9.9 - - - - - - - 0.0
20/07:00pm 27.4 - 8.3 30 10.5 - - - - - - - 0.0
20/06:30pm 27.9 - 8.2 29 10.8 - - - - - - - 0.0
20/06:00pm 28.2 - 9.0 30 10.7 - - - - - - - 0.0
20/05:30pm 28.5 - 9.2 30 10.8 - - - - - - - 0.0
20/05:00pm 28.9 - 9.1 29 11.1 - - - - - - - 0.0
20/04:30pm 28.2 - 8.5 29 10.9 - - - - - - - 0.0

Other Formats:

Comma delimited format used in spreadsheet applications
http://www.bom.gov.au/fwo/IDN60801/IDN60801.95682.axf

JavaScript Object Notation format (JSON) in row-major order
http://www.bom.gov.au/fwo/IDN60801/IDN60801.95682.json